Time;durP1;ratioP1;P1;durP2;ratioP2;P2;SDS_P1;SDS_P2;PMS_P1;PMS_P2;Temp;Humidity;BMP_temperature;BMP_pressure;BME280_temperature;BME280_humidity;BME280_pressure;Samples;Min_cycle;Max_cycle;Signal;HPM_P1;HPM_P2
2023/04/22 00:00:57;;;;;;;2.90;0.95;;;9.90;92.30;;;;;;4957613;28;20059;-86
2023/04/22 00:03:26;;;;;;;1.83;1.08;;;9.80;92.30;;;;;;4957232;28;20474;-86
2023/04/22 00:05:54;;;;;;;1.98;0.90;;;9.80;92.40;;;;;;4957800;28;20150;-86
2023/04/22 00:08:22;;;;;;;2.08;0.80;;;9.80;92.40;;;;;;4957923;28;20038;-86
2023/04/22 00:10:52;;;;;;;2.60;1.10;;;9.70;92.40;;;;;;4957922;28;20047;-86
2023/04/22 00:13:19;;;;;;;2.55;0.98;;;9.70;92.40;;;;;;4941738;28;20054;-87
2023/04/22 00:15:47;;;;;;;2.28;0.98;;;9.70;92.50;;;;;;4956674;28;20061;-86
2023/04/22 00:18:15;;;;;;;2.00;0.90;;;9.60;92.50;;;;;;4954594;28;20047;-86
2023/04/22 00:20:44;;;;;;;1.90;0.88;;;9.60;92.50;;;;;;4968815;28;20418;-86
2023/04/22 00:23:11;;;;;;;2.35;0.80;;;9.60;92.50;;;;;;4962174;28;20043;-86
2023/04/22 00:25:40;;;;;;;2.10;0.75;;;9.60;92.50;;;;;;4961480;28;20043;-86
2023/04/22 00:28:07;;;;;;;1.73;0.85;;;9.50;92.60;;;;;;4961245;28;20057;-86
2023/04/22 00:30:37;;;;;;;1.85;0.70;;;9.50;92.60;;;;;;4960933;28;20519;-86
2023/04/22 00:33:07;;;;;;;2.70;0.80;;;9.50;92.60;;;;;;4960702;28;20074;-86
2023/04/22 00:35:34;;;;;;;2.05;0.88;;;9.40;92.70;;;;;;4955005;29;20074;-85
2023/04/22 00:38:02;;;;;;;1.73;0.73;;;9.40;92.70;;;;;;4947720;28;20054;-85
2023/04/22 00:40:33;;;;;;;1.50;0.80;;;9.40;92.70;;;;;;4956051;28;20050;-85
2023/04/22 00:43:03;;;;;;;2.05;1.00;;;9.40;92.80;;;;;;4960934;28;20046;-85
2023/04/22 00:45:30;;;;;;;1.48;0.68;;;9.40;92.80;;;;;;4961122;28;20410;-85
2023/04/22 00:48:00;;;;;;;1.50;0.60;;;9.30;92.80;;;;;;4945610;29;20043;-85
2023/04/22 00:50:30;;;;;;;1.80;0.80;;;9.30;92.80;;;;;;4972945;28;20054;-84
2023/04/22 00:53:00;;;;;;;2.00;0.80;;;9.30;92.90;;;;;;4960460;28;20054;-85
2023/04/22 00:55:27;;;;;;;1.58;0.60;;;9.30;92.90;;;;;;4960898;28;20133;-86
2023/04/22 00:58:02;;;;;;;2.00;0.90;;;9.20;92.90;;;;;;4961169;28;20047;-85
2023/04/22 01:00:29;;;;;;;2.08;0.90;;;9.30;92.90;;;;;;4960365;28;20082;-85
2023/04/22 01:02:57;;;;;;;1.45;0.57;;;9.20;93.00;;;;;;4944321;28;20061;-86
2023/04/22 01:05:27;;;;;;;1.98;0.60;;;9.20;93.00;;;;;;4975936;28;20054;-85
2023/04/22 01:08:01;;;;;;;;;;;9.20;93.00;;;;;;4963454;28;20051;-85
2023/04/22 01:10:30;;;;;;;1.70;0.70;;;9.10;93.00;;;;;;4976443;28;19929;-85
2023/04/22 01:12:58;;;;;;;2.67;0.90;;;9.10;93.00;;;;;;4960303;28;20057;-85
2023/04/22 01:15:27;;;;;;;1.75;0.60;;;9.10;93.00;;;;;;4960101;28;20110;-85
2023/04/22 01:17:55;;;;;;;1.58;0.68;;;9.10;93.00;;;;;;4959569;28;20133;-85
2023/04/22 01:20:29;;;;;;;2.00;0.85;;;9.10;93.00;;;;;;4960545;28;20054;-85
2023/04/22 01:22:58;;;;;;;2.28;1.10;;;9.10;93.10;;;;;;4959924;28;20057;-85
2023/04/22 01:25:25;;;;;;;1.70;0.90;;;9.10;93.10;;;;;;4959943;28;20051;-85
2023/04/22 01:27:56;;;;;;;1.52;0.60;;;9.10;93.10;;;;;;4976187;28;20403;-86
2023/04/22 01:30:24;;;;;;;2.15;0.75;;;9.00;93.20;;;;;;4960112;28;20070;-85
2023/04/22 01:32:51;;;;;;;1.92;0.80;;;9.00;93.20;;;;;;4960206;28;20057;-86
2023/04/22 01:35:20;;;;;;;1.73;0.70;;;9.00;93.20;;;;;;4958127;28;20046;-85
2023/04/22 01:37:47;;;;;;;1.92;0.90;;;9.00;93.20;;;;;;4974514;28;20059;-85
2023/04/22 01:40:18;;;;;;;2.67;1.20;;;9.00;93.20;;;;;;4975405;28;20053;-85
2023/04/22 01:42:45;;;;;;;1.63;0.80;;;9.00;93.30;;;;;;4959429;28;20046;-85
2023/04/22 01:45:16;;;;;;;2.00;1.00;;;8.90;93.30;;;;;;4943612;28;20141;-86
2023/04/22 01:47:43;;;;;;;2.25;1.00;;;8.90;93.30;;;;;;4975370;28;20073;-86
2023/04/22 01:50:18;;;;;;;1.92;0.80;;;8.90;93.40;;;;;;4975546;28;20042;-85
2023/04/22 01:52:45;;;;;;;1.83;0.93;;;8.90;93.40;;;;;;4947113;28;20047;-86
2023/04/22 01:55:13;;;;;;;2.58;1.15;;;8.90;93.40;;;;;;4975089;28;20062;-86
2023/04/22 01:57:46;;;;;;;2.67;1.33;;;8.90;93.40;;;;;;4975519;28;20138;-86
2023/04/22 02:00:18;;;;;;;2.25;1.20;;;8.90;93.40;;;;;;4960677;28;20054;-86
2023/04/22 02:02:47;;;;;;;1.88;0.80;;;8.90;93.70;;;;;;4959688;28;20134;-86
2023/04/22 02:05:20;;;;;;;1.98;0.80;;;8.90;93.50;;;;;;4958680;28;20050;-86
2023/04/22 02:07:52;;;;;;;1.95;0.90;;;8.90;93.50;;;;;;4959315;28;20047;-85
2023/04/22 02:10:20;;;;;;;1.88;0.80;;;8.90;93.50;;;;;;4959139;28;20054;-86
2023/04/22 02:12:50;;;;;;;1.58;1.02;;;8.90;93.50;;;;;;4974485;28;20501;-86
2023/04/22 02:15:18;;;;;;;1.85;0.93;;;8.90;93.50;;;;;;4957439;28;20051;-86
2023/04/22 02:17:50;;;;;;;2.70;1.27;;;8.90;93.50;;;;;;4974731;28;20133;-85
2023/04/22 02:20:17;;;;;;;2.03;1.10;;;8.90;93.50;;;;;;4958249;28;20055;-86
2023/04/22 02:22:44;;;;;;;2.17;0.90;;;8.90;93.50;;;;;;4958472;28;20046;-87
2023/04/22 02:25:12;;;;;;;2.53;1.00;;;8.90;93.50;;;;;;4959536;28;20451;-87
2023/04/22 02:27:41;;;;;;;2.10;1.02;;;9.00;93.50;;;;;;4943834;28;20070;-87
2023/04/22 02:30:09;;;;;;;2.70;1.30;;;9.00;93.50;;;;;;4945352;29;20051;-86
2023/04/22 02:32:37;;;;;;;2.78;1.13;;;9.00;93.50;;;;;;4964177;28;20043;-86
2023/04/22 02:35:05;;;;;;;2.10;0.93;;;9.00;93.40;;;;;;4958893;28;20129;-86
2023/04/22 02:37:32;;;;;;;2.53;1.10;;;9.00;93.40;;;;;;4958462;28;20046;-86
2023/04/22 02:39:59;;;;;;;1.65;0.70;;;9.00;93.40;;;;;;4974558;28;20046;-85
2023/04/22 02:42:29;;;;;;;2.15;1.20;;;9.00;93.50;;;;;;4958410;28;20046;-87
2023/04/22 02:44:56;;;;;;;2.20;1.00;;;9.00;93.50;;;;;;4952798;28;20043;-87
2023/04/22 02:47:24;;;;;;;2.40;1.00;;;9.00;93.50;;;;;;4956726;28;20051;-86
2023/04/22 02:49:51;;;;;;;2.33;1.08;;;9.00;93.50;;;;;;4958336;28;20043;-86
2023/04/22 02:52:23;;;;;;;2.60;1.23;;;9.10;93.50;;;;;;4958140;28;20047;-87
2023/04/22 02:54:50;;;;;;;2.17;1.00;;;9.10;93.50;;;;;;4957884;28;20085;-87
2023/04/22 02:57:17;;;;;;;3.25;1.42;;;9.10;93.50;;;;;;4958093;28;20042;-87
2023/04/22 02:59:45;;;;;;;1.67;1.05;;;9.10;93.40;;;;;;4955009;29;20059;-87
2023/04/22 03:02:15;;;;;;;2.60;1.45;;;9.10;93.40;;;;;;4955093;28;20105;-87
2023/04/22 03:05:03;;;;;;;2.47;1.30;;;9.10;93.40;;;;;;4954326;28;20155;-87
2023/04/22 03:07:31;;;;;;;2.80;1.67;;;9.20;93.40;;;;;;4958259;28;20074;-86
2023/04/22 03:09:59;;;;;;;3.00;1.55;;;9.20;93.40;;;;;;4963857;28;20130;-86
2023/04/22 03:12:26;;;;;;;2.83;1.42;;;9.20;93.40;;;;;;4957914;28;20047;-86
2023/04/22 03:15:00;;;;;;;2.22;1.30;;;9.20;93.50;;;;;;4973892;28;20049;-86
2023/04/22 03:17:29;;;;;;;2.53;1.35;;;9.20;93.50;;;;;;4949602;28;20105;-87
2023/04/22 03:19:59;;;;;;;3.58;1.77;;;9.20;93.50;;;;;;4958152;28;20051;-87
2023/04/22 03:22:27;;;;;;;2.75;1.35;;;9.20;93.50;;;;;;4957968;28;20495;-87
2023/04/22 03:25:00;;;;;;;3.35;1.50;;;9.20;93.50;;;;;;4958483;28;20050;-87
2023/04/22 03:27:28;;;;;;;3.47;1.40;;;9.20;93.50;;;;;;4958658;28;20047;-87
2023/04/22 03:29:55;;;;;;;3.13;1.83;;;9.30;93.50;;;;;;4942843;28;20097;-87
2023/04/22 03:32:22;;;;;;;2.78;1.38;;;9.20;93.50;;;;;;4958194;28;20047;-87
2023/04/22 03:35:00;;;;;;;2.90;1.35;;;9.20;93.50;;;;;;4959160;28;20134;-86
2023/04/22 03:37:27;;;;;;;2.63;1.27;;;9.30;93.50;;;;;;4958559;28;20051;-86
2023/04/22 03:39:55;;;;;;;2.75;1.30;;;9.30;93.50;;;;;;4939324;28;20079;-86
2023/04/22 03:42:26;;;;;;;3.85;1.77;;;9.20;93.50;;;;;;4954737;29;20118;-87
2023/04/22 03:44:54;;;;;;;3.08;1.83;;;9.30;93.60;;;;;;4957249;28;20407;-88
2023/04/22 03:47:25;;;;;;;3.10;1.55;;;9.20;93.60;;;;;;4953110;29;20134;-87
2023/04/22 03:50:00;;;;;;;3.13;1.55;;;9.30;93.60;;;;;;4968060;28;20057;-87
2023/04/22 03:52:31;;;;;;;3.63;1.88;;;9.30;93.60;;;;;;4958004;28;20066;-87
2023/04/22 03:55:02;;;;;;;3.05;1.40;;;9.30;93.60;;;;;;4957762;28;20515;-87
2023/04/22 03:57:30;;;;;;;2.13;1.13;;;9.30;93.60;;;;;;4958758;28;20054;-87
2023/04/22 03:59:58;;;;;;;2.85;1.50;;;9.30;93.60;;;;;;4961261;28;20050;-87
2023/04/22 04:02:26;;;;;;;3.67;1.55;;;9.30;93.60;;;;;;4961350;28;20059;-87
2023/04/22 04:04:58;;;;;;;3.53;1.70;;;9.30;93.60;;;;;;4961698;28;20427;-87
2023/04/22 04:07:26;;;;;;;2.45;1.50;;;9.30;93.60;;;;;;4976982;28;20046;-87
2023/04/22 04:09:53;;;;;;;2.33;1.33;;;9.30;93.60;;;;;;4977419;28;20109;-87
2023/04/22 04:12:21;;;;;;;2.63;1.40;;;9.30;93.60;;;;;;4961481;28;20506;-87
2023/04/22 04:14:48;;;;;;;3.25;1.80;;;9.30;93.60;;;;;;4977047;28;20098;-87
2023/04/22 04:17:24;;;;;;;;;;;9.30;93.60;;;;;;4977613;28;20047;-87
2023/04/22 04:19:52;;;;;;;4.13;1.92;;;9.30;93.60;;;;;;4975405;28;19922;-87
2023/04/22 04:22:20;;;;;;;2.75;1.52;;;9.20;93.60;;;;;;4965917;28;20545;-87
2023/04/22 04:24:55;;;;;;;2.88;1.40;;;9.30;93.60;;;;;;4977072;28;20127;-87
2023/04/22 04:27:28;;;;;;;3.45;1.77;;;9.30;93.60;;;;;;4977274;28;20089;-87
2023/04/22 04:29:55;;;;;;;4.43;1.98;;;9.30;93.60;;;;;;4961024;28;20053;-87
2023/04/22 04:32:35;;;;;;;2.95;1.63;;;9.30;93.60;;;;;;4948232;28;20518;-86
2023/04/22 04:35:07;;;;;;;3.25;2.10;;;9.30;93.60;;;;;;4961428;28;20074;-87
2023/04/22 04:37:39;;;;;;;4.07;1.98;;;9.30;93.70;;;;;;4957583;29;20055;-87
2023/04/22 04:40:11;;;;;;;2.97;1.77;;;9.40;93.70;;;;;;4960748;28;20051;-86
2023/04/22 04:42:54;;;;;;;3.45;1.83;;;9.40;93.70;;;;;;4962997;28;20050;-87
2023/04/22 04:45:28;;;;;;;4.53;1.95;;;9.40;93.70;;;;;;4961269;28;20101;-87
2023/04/22 04:48:01;;;;;;;3.05;1.60;;;9.40;93.70;;;;;;4960829;28;20145;-87
2023/04/22 04:50:35;;;;;;;3.35;1.65;;;9.40;93.70;;;;;;4976438;28;20487;-86
2023/04/22 04:53:06;;;;;;;3.38;2.25;;;9.40;93.70;;;;;;4976301;28;20043;-87
2023/04/22 04:55:39;;;;;;;3.53;1.80;;;9.40;93.60;;;;;;4976905;28;20130;-87
2023/04/22 04:58:14;;;;;;;4.18;2.40;;;9.50;93.70;;;;;;4961477;28;20142;-87
2023/04/22 05:00:42;;;;;;;4.00;1.85;;;9.50;93.70;;;;;;4976374;28;20042;-87
2023/04/22 05:03:10;;;;;;;3.80;2.40;;;9.50;93.70;;;;;;4960000;28;20073;-87
2023/04/22 05:05:38;;;;;;;3.63;2.00;;;9.50;93.70;;;;;;4944255;28;20057;-87
2023/04/22 05:08:06;;;;;;;4.40;2.45;;;9.50;93.70;;;;;;4956444;28;20051;-87
2023/04/22 05:10:35;;;;;;;5.35;2.65;;;9.50;93.70;;;;;;4956746;28;20047;-87
2023/04/22 05:13:03;;;;;;;5.28;2.60;;;9.60;93.70;;;;;;4951888;28;20038;-87
2023/04/22 05:15:31;;;;;;;4.18;2.60;;;9.60;93.70;;;;;;4944471;28;20482;-87
2023/04/22 05:17:59;;;;;;;3.92;2.00;;;9.60;94.00;;;;;;4960303;28;20109;-87
2023/04/22 05:20:26;;;;;;;3.42;2.15;;;9.60;93.70;;;;;;4943774;28;20080;-87
2023/04/22 05:22:53;;;;;;;4.70;2.70;;;9.60;93.70;;;;;;4944026;28;20051;-88
2023/04/22 05:25:24;;;;;;;4.05;2.38;;;9.60;93.70;;;;;;4958803;28;20492;-88
2023/04/22 05:28:00;;;;;;;4.65;2.40;;;9.60;93.60;;;;;;4961007;28;20050;-87
2023/04/22 05:30:33;;;;;;;5.85;3.00;;;9.60;93.60;;;;;;4953562;28;20066;-88
2023/04/22 05:33:00;;;;;;;3.75;2.30;;;9.70;93.60;;;;;;4959679;28;20117;-87
2023/04/22 05:35:37;;;;;;;4.60;2.83;;;9.70;93.60;;;;;;4945815;28;20053;-87
2023/04/22 05:38:05;;;;;;;5.15;2.60;;;9.70;93.60;;;;;;4959313;28;20085;-87
2023/04/22 05:40:36;;;;;;;4.57;2.45;;;9.70;93.60;;;;;;4974709;28;20053;-87
2023/04/22 05:43:05;;;;;;;3.55;2.05;;;9.80;93.70;;;;;;4936126;28;20042;-87
2023/04/22 05:45:33;;;;;;;5.15;2.55;;;9.80;93.60;;;;;;4946525;28;20038;-87
2023/04/22 05:48:02;;;;;;;4.65;2.50;;;9.80;93.60;;;;;;4939268;28;20046;-86
2023/04/22 05:50:34;;;;;;;4.38;2.13;;;9.80;93.60;;;;;;4958181;28;20051;-87
2023/04/22 05:53:06;;;;;;;3.05;1.63;;;9.90;93.60;;;;;;4958451;28;20047;-88
2023/04/22 05:55:36;;;;;;;4.82;2.78;;;9.90;93.50;;;;;;4933502;29;20459;-88
2023/04/22 05:58:06;;;;;;;4.50;2.55;;;10.00;93.50;;;;;;4927765;29;20416;-88
2023/04/22 06:00:48;;;;;;;;;;;10.00;93.50;;;;;;4956364;28;20125;-87
2023/04/22 06:03:34;;;;;;;3.15;1.80;;;10.00;93.40;;;;;;4960639;28;20415;-87
2023/04/22 06:06:01;;;;;;;3.63;2.10;;;10.10;93.40;;;;;;4958325;28;20050;-87
2023/04/22 06:08:30;;;;;;;3.53;1.80;;;10.20;93.40;;;;;;4958183;28;20038;-87
2023/04/22 06:11:00;;;;;;;4.03;2.45;;;10.20;93.40;;;;;;4942261;28;20627;-87
2023/04/22 06:13:30;;;;;;;4.45;2.60;;;10.30;93.40;;;;;;4944069;28;20039;-87
2023/04/22 06:15:57;;;;;;;5.15;2.20;;;10.30;93.30;;;;;;4974878;28;20142;-88
2023/04/22 06:18:28;;;;;;;3.17;1.80;;;10.30;93.30;;;;;;4958444;28;20073;-87
2023/04/22 06:20:55;;;;;;;5.35;3.05;;;10.40;93.30;;;;;;4945482;29;20040;-88
2023/04/22 06:23:26;;;;;;;4.65;2.17;;;10.40;93.20;;;;;;4941321;28;20134;-87
2023/04/22 06:25:57;;;;;;;3.30;1.88;;;10.50;93.20;;;;;;4958829;28;20129;-87
2023/04/22 06:28:24;;;;;;;4.90;2.85;;;10.50;93.20;;;;;;4958557;28;20039;-87
2023/04/22 06:30:54;;;;;;;4.90;2.45;;;10.60;93.20;;;;;;4959332;28;20078;-87
2023/04/22 06:33:24;;;;;;;5.20;2.35;;;10.60;93.20;;;;;;4959011;28;20051;-87
2023/04/22 06:35:51;;;;;;;4.35;2.20;;;10.60;93.20;;;;;;4958834;28;20050;-88
2023/04/22 06:38:21;;;;;;;4.07;2.42;;;10.60;93.20;;;;;;4958598;28;20077;-87
2023/04/22 06:41:10;;;;;;;4.43;2.67;;;10.70;93.30;;;;;;4969874;28;20053;-88
2023/04/22 06:43:42;;;;;;;4.53;2.30;;;10.70;93.30;;;;;;4974016;28;20098;-87
2023/04/22 06:46:17;;;;;;;3.70;2.17;;;10.70;93.30;;;;;;4974585;28;20562;-87
2023/04/22 06:48:54;;;;;;;4.20;2.17;;;10.70;93.30;;;;;;4974478;28;20050;-87
2023/04/22 06:51:47;;;;;;;4.40;2.45;;;10.70;93.30;;;;;;4955966;28;20055;-85
2023/04/22 06:54:14;;;;;;;4.68;2.90;;;10.90;93.20;;;;;;4957517;28;20074;-85
2023/04/22 06:56:42;;;;;;;5.28;2.53;;;11.00;93.10;;;;;;4938617;29;20089;-85
2023/04/22 06:59:12;;;;;;;4.25;2.45;;;11.10;93.00;;;;;;4956101;28;20082;-85
2023/04/22 07:01:42;;;;;;;4.45;2.45;;;11.30;92.90;;;;;;4957999;28;20054;-85
2023/04/22 07:04:09;;;;;;;5.38;2.28;;;11.40;92.80;;;;;;4941393;28;20401;-85
2023/04/22 07:06:37;;;;;;;4.90;2.75;;;11.60;92.70;;;;;;4974262;28;20053;-85
2023/04/22 07:09:05;;;;;;;5.28;3.17;;;11.70;92.60;;;;;;4973450;28;20530;-85
2023/04/22 07:11:37;;;;;;;;;;;11.80;92.60;;;;;;4954478;29;20399;-85
2023/04/22 07:14:16;;;;;;;4.32;2.38;;;11.90;92.50;;;;;;4942031;28;19929;-85
2023/04/22 07:16:46;;;;;;;4.93;2.85;;;12.00;92.40;;;;;;4973648;28;20059;-85
2023/04/22 07:19:16;;;;;;;5.35;2.88;;;12.10;92.40;;;;;;4957457;28;20042;-85
2023/04/22 07:21:46;;;;;;;4.57;2.47;;;12.20;92.30;;;;;;4973363;28;20053;-84
2023/04/22 07:24:14;;;;;;;4.60;2.63;;;12.30;92.30;;;;;;4957124;28;20122;-84
2023/04/22 07:26:43;;;;;;;4.57;2.47;;;12.40;92.30;;;;;;4957178;28;20078;-84
2023/04/22 07:29:11;;;;;;;5.13;3.30;;;12.60;92.20;;;;;;4957422;28;20053;-84
2023/04/22 07:31:40;;;;;;;5.72;3.17;;;12.70;92.10;;;;;;4973415;28;20047;-85
2023/04/22 07:34:09;;;;;;;4.93;2.70;;;12.90;92.00;;;;;;4961027;28;20058;-84
2023/04/22 07:36:36;;;;;;;5.13;3.30;;;13.10;91.90;;;;;;4961102;28;20472;-85
2023/04/22 07:39:03;;;;;;;4.82;2.95;;;13.20;91.80;;;;;;4961187;28;20070;-85
2023/04/22 07:41:32;;;;;;;6.18;2.95;;;13.30;91.70;;;;;;4961640;28;20141;-84
2023/04/22 07:44:02;;;;;;;5.03;2.88;;;13.40;91.70;;;;;;4961561;28;20137;-85
2023/04/22 07:46:29;;;;;;;5.10;3.40;;;13.40;91.70;;;;;;4977183;28;20065;-85
2023/04/22 07:49:00;;;;;;;5.35;3.85;;;13.50;91.70;;;;;;4976132;28;20058;-85
2023/04/22 07:51:27;;;;;;;4.93;3.35;;;13.60;91.60;;;;;;4960801;28;20090;-84
2023/04/22 07:53:55;;;;;;;5.20;2.90;;;13.70;91.50;;;;;;4960705;28;20097;-84
2023/04/22 07:56:25;;;;;;;5.85;3.63;;;13.80;91.50;;;;;;4960958;28;20079;-84
2023/04/22 07:58:52;;;;;;;5.55;3.95;;;13.80;91.40;;;;;;4944914;28;20051;-85
2023/04/22 08:01:19;;;;;;;5.40;3.17;;;13.80;91.40;;;;;;4944613;28;20097;-85
2023/04/22 08:03:46;;;;;;;5.38;3.13;;;13.90;91.50;;;;;;4957245;28;20047;-85
2023/04/22 08:06:14;;;;;;;6.15;3.55;;;14.00;91.50;;;;;;4943711;28;20046;-84
2023/04/22 08:08:42;;;;;;;4.78;2.78;;;14.00;91.40;;;;;;4960670;28;20050;-84
2023/04/22 08:11:09;;;;;;;5.75;2.70;;;14.10;91.40;;;;;;4960088;28;20090;-84
2023/04/22 08:27:29;;;;;;;4.82;3.20;;;14.60;90.90;;;;;;4871701;29;20495;-88
2023/04/22 08:30:06;;;;;;;5.53;3.03;;;14.60;90.90;;;;;;4917555;29;20108;-88
2023/04/22 08:32:43;;;;;;;5.03;3.00;;;14.70;90.80;;;;;;4906955;29;20639;-88
2023/04/22 08:35:10;;;;;;;4.68;2.65;;;14.80;90.70;;;;;;4905926;29;20040;-89
2023/04/22 08:37:40;;;;;;;5.40;3.25;;;14.90;90.60;;;;;;4921505;29;20051;-87
2023/04/22 08:40:26;;;;;;;5.40;3.10;;;15.10;90.50;;;;;;4920691;29;20050;-88
2023/04/22 08:43:03;;;;;;;5.43;2.85;;;15.10;90.40;;;;;;4935756;29;20047;-83
2023/04/22 08:45:34;;;;;;;5.82;3.40;;;15.20;90.50;;;;;;4916787;29;20084;-83
2023/04/22 08:48:01;;;;;;;4.45;3.08;;;15.30;90.50;;;;;;4920247;29;20427;-84
2023/04/22 08:50:33;;;;;;;5.72;2.97;;;15.40;90.40;;;;;;4923006;29;20080;-82
2023/04/22 08:58:17;;;;;;;;;;;;;;;;;;;;;
2023/04/22 09:03:05;;;;;;;;;;;;;;;;;;;;;
2023/04/22 09:09:48;;;;;;;3.42;1.50;;;15.70;90.30;;;;;;4735662;30;20502;-93
2023/04/22 09:27:10;;;;;;;5.80;2.97;;;16.30;88.50;;;;;;4735219;30;20067;-90
2023/04/22 09:29:59;;;;;;;3.63;2.33;;;16.40;88.50;;;;;;4727676;30;20040;-91
2023/04/22 09:32:45;;;;;;;3.35;2.08;;;16.60;88.40;;;;;;4702615;30;20083;-90
2023/04/22 09:35:26;;;;;;;3.95;2.47;;;16.60;88.10;;;;;;4728025;30;20528;-90
2023/04/22 09:43:19;;;;;;;6.63;3.58;;;16.80;87.30;;;;;;4842785;29;20038;-90
2023/04/22 09:49:40;;;;;;;4.22;2.63;;;16.90;87.30;;;;;;4793852;29;20055;-89
2023/04/22 09:52:34;;;;;;;5.38;3.78;;;17.00;87.30;;;;;;4864785;29;20056;-91
2023/04/22 09:55:34;;;;;;;5.55;3.78;;;17.10;86.50;;;;;;4850892;29;20053;-89
2023/04/22 09:58:07;;;;;;;4.22;2.65;;;17.20;86.20;;;;;;4853831;29;20048;-91
2023/04/22 10:00:44;;;;;;;4.47;2.38;;;17.40;86.20;;;;;;4868594;29;20076;-89
2023/04/22 10:03:41;;;;;;;;;;;;;;;;;;;;;
2023/04/22 10:06:12;;;;;;;4.35;2.60;;;17.90;85.30;;;;;;4884434;29;20048;-89
2023/04/22 10:08:43;;;;;;;4.82;2.38;;;18.00;85.20;;;;;;4897495;29;20052;-89
2023/04/22 10:11:30;;;;;;;4.10;2.50;;;18.20;85.00;;;;;;4881616;29;20045;-88
2023/04/22 10:14:04;;;;;;;3.83;2.30;;;18.30;84.60;;;;;;4897091;29;20044;-89
2023/04/22 10:21:09;;;;;;;4.35;2.83;;;18.40;84.20;;;;;;4897930;29;20042;-91
2023/04/22 10:23:45;;;;;;;3.80;2.10;;;18.30;84.20;;;;;;4896445;29;20052;-83
2023/04/22 10:26:33;;;;;;;4.20;2.40;;;18.40;83.90;;;;;;4896239;29;20052;-83
2023/04/22 10:33:16;;;;;;;3.70;2.35;;;18.80;82.80;;;;;;4897422;29;20044;-91
2023/04/22 10:36:06;;;;;;;4.68;2.00;;;18.90;82.00;;;;;;4882648;29;20048;-87
2023/04/22 10:38:38;;;;;;;5.68;2.38;;;19.30;81.50;;;;;;4896884;29;20139;-88
2023/04/22 10:41:15;;;;;;;3.10;1.65;;;19.60;80.60;;;;;;4890854;29;20072;-83
2023/04/22 10:43:54;;;;;;;2.90;1.88;;;19.80;79.60;;;;;;4880345;29;20536;-81
2023/04/22 10:46:31;;;;;;;3.83;2.72;;;20.00;79.20;;;;;;4896033;29;20044;-84
2023/04/22 10:49:21;;;;;;;3.40;2.33;;;19.70;78.80;;;;;;4885216;29;20076;-87
2023/04/22 10:52:28;;;;;;;4.38;3.13;;;19.40;79.30;;;;;;4893863;29;20048;-87
2023/04/22 10:54:57;;;;;;;4.13;2.78;;;19.40;79.60;;;;;;4896139;29;20458;-84
2023/04/22 10:57:38;;;;;;;4.75;3.15;;;19.30;79.50;;;;;;4880709;29;20115;-85
2023/04/22 11:00:40;;;;;;;6.72;3.85;;;19.30;79.20;;;;;;4881930;29;20060;-84
2023/04/22 11:03:42;;;;;;;4.10;2.50;;;19.50;79.00;;;;;;4862474;29;20049;-87
2023/04/22 11:06:21;;;;;;;4.45;2.60;;;20.00;78.20;;;;;;4882784;29;20053;-87
2023/04/22 11:09:34;;;;;;;3.83;2.75;;;19.90;78.20;;;;;;4897195;29;20867;-93
2023/04/22 11:12:41;;;;;;;4.97;2.72;;;19.70;78.60;;;;;;4893885;29;20056;-84
2023/04/22 11:15:09;;;;;;;4.50;3.00;;;19.80;79.00;;;;;;4864373;29;20131;-83
2023/04/22 11:17:38;;;;;;;4.18;2.40;;;19.80;79.10;;;;;;4864716;29;20052;-86
2023/04/22 11:20:09;;;;;;;4.82;2.28;;;19.70;79.40;;;;;;4895862;29;20056;-86
2023/04/22 11:22:38;;;;;;;3.80;2.08;;;19.60;79.40;;;;;;4880798;29;20044;-87
2023/04/22 11:25:11;;;;;;;4.40;2.45;;;19.50;79.50;;;;;;4895340;29;20080;-87
2023/04/22 11:27:40;;;;;;;3.15;2.30;;;19.40;79.70;;;;;;4896057;29;20131;-87
2023/04/22 11:30:15;;;;;;;4.63;3.20;;;19.40;79.70;;;;;;4881162;29;20044;-87
2023/04/22 11:32:54;;;;;;;3.75;2.08;;;19.30;79.20;;;;;;4887121;29;20052;-86
2023/04/22 11:35:28;;;;;;;3.38;2.15;;;19.10;79.50;;;;;;4895590;29;20052;-85
2023/04/22 11:38:04;;;;;;;4.28;2.70;;;19.00;79.70;;;;;;4895331;29;20147;-85
2023/04/22 11:43:58;;;;;;;4.45;1.95;;;19.10;79.20;;;;;;4849959;29;20044;-85
2023/04/22 11:46:29;;;;;;;3.85;2.60;;;19.00;79.30;;;;;;4871540;29;20045;-86
2023/04/22 11:49:26;;;;;;;4.60;3.25;;;19.00;79.10;;;;;;4880080;29;20108;-81
2023/04/22 11:51:55;;;;;;;3.50;2.22;;;19.00;78.80;;;;;;4865388;29;20052;-83
2023/04/22 11:54:33;;;;;;;3.95;2.50;;;19.00;79.00;;;;;;4880267;29;20045;-82
2023/04/22 11:57:10;;;;;;;3.55;2.58;;;19.00;78.50;;;;;;4895777;29;20059;-81
2023/04/22 11:59:41;;;;;;;4.07;2.05;;;19.00;78.70;;;;;;4882951;29;20497;-82
2023/04/22 12:02:09;;;;;;;3.40;2.40;;;18.90;79.30;;;;;;4870298;29;20056;-82
2023/04/22 12:04:40;;;;;;;4.70;2.60;;;18.90;78.70;;;;;;4871790;29;20045;-82
2023/04/22 12:07:07;;;;;;;3.63;2.07;;;18.80;78.80;;;;;;4879297;29;20048;-81
2023/04/22 12:09:34;;;;;;;6.75;1.98;;;18.70;79.00;;;;;;4880475;29;20293;-82
2023/04/22 12:12:04;;;;;;;5.72;2.72;;;18.60;79.20;;;;;;4880667;29;20052;-83
2023/04/22 12:14:35;;;;;;;4.60;3.35;;;18.50;79.30;;;;;;4877634;29;20072;-81
2023/04/22 12:17:08;;;;;;;4.05;2.50;;;18.30;79.30;;;;;;4865549;29;20048;-84
2023/04/22 12:19:36;;;;;;;4.05;2.47;;;18.20;79.40;;;;;;4898129;29;20192;-83
2023/04/22 12:22:04;;;;;;;5.68;3.00;;;18.20;79.70;;;;;;4868935;29;20064;-83
2023/04/22 12:24:34;;;;;;;4.60;2.60;;;18.00;79.90;;;;;;4882614;29;20052;-81
2023/04/22 12:27:02;;;;;;;4.25;2.88;;;17.90;80.30;;;;;;4868031;29;20053;-82
2023/04/22 12:29:32;;;;;;;4.57;2.70;;;17.80;80.70;;;;;;4898545;29;20453;-80
2023/04/22 12:32:00;;;;;;;4.97;2.60;;;17.80;80.80;;;;;;4890193;29;20041;-84
2023/04/22 12:34:30;;;;;;;3.80;2.33;;;17.70;80.80;;;;;;4862235;29;20045;-83
2023/04/22 12:36:58;;;;;;;4.68;2.67;;;17.70;81.00;;;;;;4898729;29;20588;-81
2023/04/22 12:39:25;;;;;;;3.97;2.20;;;17.70;81.10;;;;;;4898503;29;20074;-82
2023/04/22 12:41:52;;;;;;;5.50;3.00;;;17.60;81.20;;;;;;4874971;29;20525;-82
2023/04/22 12:44:23;;;;;;;4.05;2.60;;;17.60;81.10;;;;;;4898483;29;20052;-84
2023/04/22 12:46:51;;;;;;;4.20;2.70;;;17.60;81.10;;;;;;4898079;29;20498;-82
2023/04/22 12:49:18;;;;;;;5.68;3.45;;;17.70;81.10;;;;;;4883032;29;20064;-83
2023/04/22 12:51:45;;;;;;;5.57;3.47;;;17.70;81.10;;;;;;4882821;29;20048;-82
2023/04/22 12:54:12;;;;;;;5.60;3.42;;;17.70;80.90;;;;;;4882678;29;20060;-81
2023/04/22 12:56:39;;;;;;;5.40;3.85;;;17.70;80.90;;;;;;4882500;29;20075;-82
2023/04/22 12:59:10;;;;;;;6.07;3.97;;;17.70;80.90;;;;;;4897841;29;20052;-83
2023/04/22 13:01:40;;;;;;;6.55;3.88;;;17.80;80.90;;;;;;4879978;29;20136;-83
2023/04/22 13:04:07;;;;;;;5.22;3.45;;;17.90;80.80;;;;;;4895043;29;20048;-82
2023/04/22 13:06:35;;;;;;;5.72;4.15;;;17.90;80.70;;;;;;4867413;29;20052;-84
2023/04/22 13:09:11;;;;;;;5.38;4.13;;;18.00;80.40;;;;;;4880740;29;20041;-89
2023/04/22 13:11:40;;;;;;;5.35;4.05;;;18.10;80.40;;;;;;4875138;29;20084;-89
2023/04/22 13:14:07;;;;;;;6.80;4.45;;;18.00;80.30;;;;;;4882821;29;20048;-87
2023/04/22 13:16:34;;;;;;;6.13;4.32;;;17.90;80.40;;;;;;4882897;29;20048;-86
2023/04/22 13:19:01;;;;;;;7.22;5.18;;;17.70;80.80;;;;;;4879822;29;20097;-87
2023/04/22 13:21:28;;;;;;;6.97;5.28;;;17.50;81.40;;;;;;4864265;29;20049;-89
2023/04/22 13:23:55;;;;;;;8.80;6.05;;;17.20;82.40;;;;;;4880282;29;20059;-86
2023/04/22 13:26:24;;;;;;;7.40;5.90;;;16.90;83.40;;;;;;4898805;29;20135;-86
2023/04/22 13:28:51;;;;;;;6.97;5.68;;;16.60;84.40;;;;;;4918110;28;20043;-84
2023/04/22 13:31:18;;;;;;;8.43;5.43;;;16.40;85.30;;;;;;4959400;28;20043;-85
2023/04/22 13:33:46;;;;;;;7.97;5.82;;;16.30;86.00;;;;;;4959991;28;20137;-86
2023/04/22 13:36:21;;;;;;;10.30;6.25;;;16.10;86.90;;;;;;4960500;28;20051;-85
2023/04/22 13:38:50;;;;;;;8.80;5.90;;;15.90;87.60;;;;;;4951681;28;20105;-88
2023/04/22 13:41:18;;;;;;;8.02;6.53;;;15.80;88.20;;;;;;4966892;28;20050;-87
2023/04/22 13:43:45;;;;;;;9.82;6.55;;;15.60;89.40;;;;;;4961683;28;20047;-88
2023/04/22 13:46:12;;;;;;;10.90;7.45;;;15.40;90.10;;;;;;4976416;28;20137;-87
2023/04/22 13:48:39;;;;;;;10.13;7.90;;;15.10;90.80;;;;;;4976607;28;20866;-87
2023/04/22 13:51:06;;;;;;;11.75;8.60;;;15.00;91.40;;;;;;4940847;28;20399;-87
2023/04/22 13:53:36;;;;;;;10.07;7.47;;;14.80;91.60;;;;;;4957286;28;20047;-84
2023/04/22 13:56:03;;;;;;;9.95;7.75;;;14.70;91.70;;;;;;4955739;29;20047;-86
2023/04/22 13:58:31;;;;;;;10.88;7.78;;;14.70;91.90;;;;;;4956347;29;20150;-86
2023/04/22 14:00:58;;;;;;;13.43;9.25;;;14.60;92.20;;;;;;4974618;28;20489;-85
2023/04/22 14:03:27;;;;;;;15.95;10.02;;;14.50;92.60;;;;;;4959208;28;20046;-85
2023/04/22 14:05:55;;;;;;;10.90;8.18;;;14.50;92.90;;;;;;4955735;29;20143;-85
2023/04/22 14:08:22;;;;;;;12.38;7.00;;;14.40;93.00;;;;;;4954788;28;20114;-85
2023/04/22 14:10:50;;;;;;;9.05;6.18;;;14.40;92.90;;;;;;4951362;29;20039;-86
2023/04/22 14:13:17;;;;;;;10.50;6.97;;;14.50;92.90;;;;;;4972506;28;20074;-86
2023/04/22 14:15:45;;;;;;;14.45;9.35;;;14.50;93.00;;;;;;4958634;28;20151;-86
2023/04/22 14:18:12;;;;;;;13.20;9.10;;;14.50;93.40;;;;;;4958375;28;20047;-85